• Join FlightAware (Why Join?)
  • Login
  • US Flag 
Trick or treat! (Boo!!) 
08:22AM EDT


 

Airport Tracker/Info


-or-


 

Live Flight TrackerFlight Track Log ✈ ARG1298 ✈ 31-Jul-2013 ✈ SAME / MDZ - SCEL / SCL

Flight Track Log - Related Links

Times and Time Zones

All times are in EDT time to prevent confusion due to time zone crossing. See the ARG1298 flight status page for this flight to view local times or setup timezone preferences in your user account.

Time Position Orientation Groundspeed Altitude Reporting Facility
EDT Latitude Longitude Course Direction KTS MPH feet Rate Location/Type
04:59AM -32.8480 -68.7930 178° South 145 167 3,000  Level FlightAware
04:59AM -32.8580 -68.7910 170° South 159 183 3,600 1,740 Climbing FlightAware
05:00AM -32.8650 -68.7830 136° Southeast 191 220 3,800 1,500 Climbing FlightAware
05:00AM -32.8680 -68.7720 108° East 210 242 4,100 2,760 Climbing FlightAware
05:00AM -32.8690 -68.7530 94° East 218 251 5,000 2,640 Climbing FlightAware
05:00AM -32.8740 -68.7290 104° East 232 267 5,800 2,100 Climbing FlightAware
05:00AM -32.8790 -68.7180 118° Southeast 240 276 6,100 1,680 Climbing FlightAware
05:01AM -32.8900 -68.7030 131° Southeast 256 295 6,600 2,100 Climbing FlightAware
05:01AM -32.9110 -68.6730 130° Southeast 286 329 7,500 2,700 Climbing FlightAware
05:01AM -32.9270 -68.6450 124° Southeast 300 345 8,500 2,340 Climbing FlightAware
05:02AM -32.9630 -68.5810 124° Southeast 294 338 10,400 1,260 Climbing FlightAware
05:03AM -32.9850 -68.5400 123° Southeast 294 338 10,400  Level FlightAware
05:04AM -33.0080 -68.4980 123° Southeast 294 338 10,400 4,620 Level FlightAware
05:05AM -33.0500 -68.3690 111° Southeast 336 387 17,600 4,620 Climbing FlightAware
05:05AM -33.0770 -68.3220 124° Southeast 336 387 17,600 2,760 Level FlightAware
05:06AM -32.9590 -68.3170 North 336 387 21,500 3,840 Climbing FlightAware
05:07AM -32.9200 -68.4800 286° West 356 410 23,700 2,640 Climbing FlightAware
05:07AM -32.9190 -68.5500 271° West 363 418 25,200 2,220 Climbing FlightAware
05:08AM -32.9180 -68.6220 271° West 371 427 26,500 2,100 Climbing FlightAware
05:09AM -32.9170 -68.7060 271° West 365 420 28,000 1,200 Climbing FlightAware
05:09AM -32.9150 -68.7750 272° West 357 411 28,000  Level FlightAware
05:10AM -32.9140 -68.8360 271° West 352 405 28,000  Level FlightAware
05:10AM -32.9120 -68.9150 272° West 354 407 28,000  Level FlightAware
05:11AM -32.9110 -68.9750 271° West 352 405 28,000  Level FlightAware
05:12AM -32.9100 -69.0450 271° West 355 409 28,000  Level FlightAware
05:12AM -32.9080 -69.1080 272° West 351 404 28,000  Level FlightAware
05:13AM -32.9070 -69.1710 271° West 350 403 28,000  Level FlightAware
05:13AM -32.9050 -69.2510 272° West 350 403 28,000  Level FlightAware
05:14AM -32.9030 -69.3520 271° West 350 403 28,000  Level FlightAware
05:15AM -32.9010 -69.4340 272° West 350 403 28,000  Level FlightAware
05:16AM -32.9010 -69.4930 270° West 350 403 28,000  Level FlightAware
05:16AM -32.9000 -69.5520 271° West 350 403 28,000  Level FlightAware
05:17AM -32.8990 -69.6140 271° West 350 403 28,000  Level FlightAware
05:17AM -32.8980 -69.6730 271° West 350 403 28,000  Level FlightAware
05:18AM -32.8970 -69.7360 271° West 350 403 28,000 -960 Level FlightAware
05:21AM -32.8830 -70.0420 273° West 277 319 25,100 -1,260 Descending FlightAware
05:21AM -32.8770 -70.1010 277° West 272 313 23,800 -900 Descending FlightAware
05:22AM -32.8710 -70.1770 275° West 272 313 23,500 -180 Descending FlightAware
05:23AM -32.8670 -70.2220 276° West 272 313 23,500  Level FlightAware
05:24AM -32.8630 -70.2680 276° West 272 313 23,500  Level FlightAware
05:24AM -32.8590 -70.3110 276° West 272 313 23,500  Level FlightAware
05:25AM -32.8550 -70.3560 276° West 272 313 23,500  Level FlightAware
05:25AM -32.8510 -70.4030 276° West 272 313 23,500  Level FlightAware
05:25AM -32.8510 -70.4030 211° Southwest 272 313 23,500  Level FlightAware
05:25AM -32.8510 -70.4030 211° Southwest 272 313 23,500 -1,680 Level FlightAware
05:28AM -32.9781 -70.4923 211° Southwest  Level Estimated
05:29AM -33.0401 -70.5359 211° Southwest  Level Estimated
05:30AM -33.1021 -70.5797 211° Southwest  Level Estimated
05:31AM -33.1641 -70.6234 211° Southwest  Level Estimated
05:32AM -33.2260 -70.6673 211° Southwest  Level Estimated
05:33AM -33.2879 -70.7112 211° Southwest  Level Estimated
05:34AM -33.3499 -70.7551 211° Southwest  Level Estimated
05:36AM -33.3930 -70.7858 211° Southwest  Level Estimated
05:36AM -33.2870 -70.7790 216° Southwest 217 250 6,000  Level FlightAware
05:36AM -33.2880 -70.7680 96° East 211 243 6,000  Level FlightAware
05:37AM -33.2860 -70.7590 75° East 209 241 6,000  Level FlightAware
05:37AM -33.2760 -70.7460 47° Northeast 203 234 6,000  Level FlightAware
05:37AM -33.2660 -70.7420 18° North 202 232 6,000  Level FlightAware
05:37AM -33.2420 -70.7410 North 203 234 6,000  Level FlightAware
05:38AM -33.2150 -70.7410 360° North 202 232 6,000  Level FlightAware
05:38AM -33.1890 -70.7410 360° North 203 234 6,000  Level FlightAware
05:39AM -33.1680 -70.7390 North 203 234 6,000 -300 Level FlightAware
05:41AM -33.3016 -70.7668 190° South  Level Estimated
05:42AM -33.1570 -70.8170 190° South 213 245 4,800  Level FlightAware
05:43AM -33.1760 -70.8160 177° South 210 242 4,800 -120 Level FlightAware
05:43AM -33.2110 -70.8150 179° South 179 206 4,700 -600 Descending FlightAware
05:44AM -33.2370 -70.8140 178° South 178 205 4,200 -900 Descending FlightAware
05:44AM -33.2500 -70.8130 176° South 167 192 3,900 -480 Descending FlightAware
05:45AM -33.2790 -70.8110 177° South 158 182 3,700 -960 Descending FlightAware
05:46AM -33.3120 -70.8100 179° South 148 170 2,700 -960 Descending FlightAware
05:46AM -33.3270 -70.8100 180° South 148 170 2,700  Level FlightAware
05:49AM -33.3970 -70.8070 178° South 130 150 -1,080 Descending FlightAware
05:49AM -33.3920 -70.7920 68° East 130 150  Level FlightAware